Monitor, Washington
Current Conditions -  °F | °C
As of 4:55 AM on Wednesday 22 Oct 2014 (Local Time) from KEAT Reporting Station
Overcast Overcast  
Wind Chill: 50°   Ceiling: 5000
Heat Index: 50°   Visibility: 10mi
Dew Point: 43°   Wind: 8mph
Humidity: 77%   Direction: 100°E
Pressure: 29.82"   Gusts: NA
Location:  47.49°N, 120.42°W
Report Text: KEAT 221155Z AUTO 10007KT 10SM BKN050 OVC060 10/06 A2982 RMK AO2 SLP097 T01000061 10111 20078 58011
Loading
Personal Weather Stations






























Interactive Weather Map
Tropical Storm Tracking
New forecast layout! Learn more

10-Day Weather Forecast

Advertisements
Track Severe Weather on mobile